Time;durP1;ratioP1;P1;durP2;ratioP2;P2;SDS_P1;SDS_P2;PMS_P1;PMS_P2;Temp;Humidity;BMP_temperature;BMP_pressure;BME280_temperature;BME280_humidity;BME280_pressure;Samples;Min_cycle;Max_cycle;Signal;HPM_P1;HPM_P2
2023/07/14 00:01:18;;;;;;;7.77;6.97;;;;;;;;;;5030220;28;20452;-81
2023/07/14 00:03:45;;;;;;;9.10;7.10;;;;;;;;;;5021742;28;20468;-81
2023/07/14 00:06:12;;;;;;;9.00;8.20;;;;;;;;;;5034811;28;20465;-81
2023/07/14 00:08:39;;;;;;;10.50;7.80;;;;;;;;;;5027662;28;20473;-81
2023/07/14 00:11:06;;;;;;;9.07;8.20;;;;;;;;;;5035815;28;20468;-81
2023/07/14 00:13:33;;;;;;;11.93;7.57;;;;;;;;;;5034667;28;20445;-81
2023/07/14 00:15:59;;;;;;;9.90;8.90;;;;;;;;;;5020972;28;20472;-81
2023/07/14 00:18:27;;;;;;;9.80;8.23;;;;;;;;;;5030425;28;20846;-82
2023/07/14 00:20:56;;;;;;;9.30;6.90;;;;;;;;;;5032715;28;21025;-81
2023/07/14 00:23:22;;;;;;;10.60;8.90;;;;;;;;;;5031357;28;20485;-81
2023/07/14 00:25:49;;;;;;;10.40;9.10;;;;;;;;;;5028314;28;20848;-81
2023/07/14 00:28:16;;;;;;;9.57;8.63;;;;;;;;;;5036065;28;20527;-81
2023/07/14 00:30:43;;;;;;;8.77;7.87;;;;;;;;;;5034508;28;20464;-82
2023/07/14 00:33:11;;;;;;;11.43;8.50;;;;;;;;;;5027492;28;20456;-81
2023/07/14 00:35:39;;;;;;;9.13;8.13;;;;;;;;;;5033783;28;20465;-80
2023/07/14 00:38:06;;;;;;;9.50;8.50;;;;;;;;;;5028949;28;20476;-81
2023/07/14 00:40:37;;;;;;;15.20;7.73;;;;;;;;;;5033969;28;20847;-81
2023/07/14 00:43:05;;;;;;;10.13;7.10;;;;;;;;;;5035288;28;20468;-81
2023/07/14 00:45:32;;;;;;;8.10;7.20;;;;;;;;;;5026411;28;20466;-81
2023/07/14 00:48:03;;;;;;;7.93;7.17;;;;;;;;;;5027159;28;20986;-81
2023/07/14 00:50:32;;;;;;;12.87;9.17;;;;;;;;;;5025006;28;20579;-81
2023/07/14 00:53:02;;;;;;;9.00;7.37;;;;;;;;;;5006542;28;20428;-80
2023/07/14 00:55:37;;;;;;;13.70;8.20;;;;;;;;;;5031068;28;20472;-82
2023/07/14 00:58:03;;;;;;;13.30;7.23;;;;;;;;;;5035737;28;20473;-81
2023/07/14 01:00:33;;;;;;;8.70;6.37;;;;;;;;;;5030585;28;20464;-81
2023/07/14 01:03:00;;;;;;;9.63;8.63;;;;;;;;;;5033837;28;20531;-81
2023/07/14 01:05:27;;;;;;;10.27;8.20;;;;;;;;;;5031928;28;20468;-81
2023/07/14 01:07:54;;;;;;;9.40;8.50;;;;;;;;;;5025323;28;20507;-81
2023/07/14 01:10:23;;;;;;;9.60;8.20;;;;;;;;;;5032677;28;20471;-80
2023/07/14 01:12:53;;;;;;;10.00;8.93;;;;;;;;;;5032543;28;20445;-81
2023/07/14 01:15:20;;;;;;;9.77;8.87;;;;;;;;;;5028678;28;20473;-81
2023/07/14 01:17:47;;;;;;;9.17;8.30;;;;;;;;;;5030784;28;20491;-82
2023/07/14 01:20:14;;;;;;;8.83;8.03;;;;;;;;;;5029868;28;20468;-81
2023/07/14 01:22:46;;;;;;;7.33;6.63;;;;;;;;;;5035340;28;20532;-81
2023/07/14 01:25:17;;;;;;;8.30;7.50;;;;;;;;;;5028806;28;20502;-82
2023/07/14 01:27:47;;;;;;;9.17;8.17;;;;;;;;;;5034646;28;20447;-81
2023/07/14 01:30:14;;;;;;;11.60;9.03;;;;;;;;;;5030999;28;20957;-81
2023/07/14 01:32:43;;;;;;;9.53;8.60;;;;;;;;;;5033476;28;20456;-81
2023/07/14 01:35:09;;;;;;;13.67;9.60;;;;;;;;;;5034149;28;20838;-81
2023/07/14 01:37:37;;;;;;;10.33;9.33;;;;;;;;;;5032264;28;20439;-81
2023/07/14 01:40:05;;;;;;;11.73;9.90;;;;;;;;;;5028181;28;20577;-81
2023/07/14 01:42:32;;;;;;;10.63;9.63;;;;;;;;;;5028865;28;20817;-81
2023/07/14 01:45:00;;;;;;;8.23;7.07;;;;;;;;;;5034438;28;20480;-81
2023/07/14 01:47:30;;;;;;;13.83;8.80;;;;;;;;;;5019943;28;20465;-81
2023/07/14 01:49:57;;;;;;;10.77;9.77;;;;;;;;;;5031926;28;20453;-81
2023/07/14 01:52:25;;;;;;;9.93;8.70;;;;;;;;;;5026956;28;20489;-81
2023/07/14 01:54:54;;;;;;;8.70;7.90;;;;;;;;;;5033572;28;20441;-81
2023/07/14 01:57:22;;;;;;;13.03;9.43;;;;;;;;;;5019069;28;20460;-81
2023/07/14 01:59:51;;;;;;;12.70;10.30;;;;;;;;;;5032628;28;20516;-81
2023/07/14 02:02:22;;;;;;;12.40;11.17;;;;;;;;;;5031201;28;20457;-81
2023/07/14 02:04:49;;;;;;;13.80;12.40;;;;;;;;;;5024891;28;20450;-82
2023/07/14 02:07:17;;;;;;;13.43;12.00;;;;;;;;;;5034363;28;20423;-81
2023/07/14 02:09:43;;;;;;;14.03;11.70;;;;;;;;;;5023224;28;20430;-81
2023/07/14 02:12:13;;;;;;;12.73;11.43;;;;;;;;;;5028133;28;20445;-81
2023/07/14 02:14:42;;;;;;;13.33;11.47;;;;;;;;;;5031496;28;20440;-81
2023/07/14 02:17:13;;;;;;;18.13;11.60;;;;;;;;;;5046283;28;20490;-81
2023/07/14 02:19:41;;;;;;;13.70;12.23;;;;;;;;;;5046626;28;20470;-81
2023/07/14 02:22:08;;;;;;;13.30;11.77;;;;;;;;;;5042172;28;20461;-81
2023/07/14 02:24:34;;;;;;;16.53;13.03;;;;;;;;;;5054303;28;20485;-80
2023/07/14 02:27:03;;;;;;;20.90;17.10;;;;;;;;;;5034898;28;20440;-80
2023/07/14 02:29:30;;;;;;;33.47;14.80;;;;;;;;;;5034187;28;20957;-81
2023/07/14 02:31:58;;;;;;;16.80;14.70;;;;;;;;;;5025827;28;20473;-81
2023/07/14 02:34:29;;;;;;;23.23;16.57;;;;;;;;;;5033877;28;20808;-80
2023/07/14 02:36:59;;;;;;;19.33;15.17;;;;;;;;;;5026829;28;20468;-81
2023/07/14 02:39:26;;;;;;;22.70;15.47;;;;;;;;;;5034355;28;20423;-82
2023/07/14 02:41:55;;;;;;;17.47;15.33;;;;;;;;;;5027544;28;20465;-81
2023/07/14 02:44:23;;;;;;;20.03;16.13;;;;;;;;;;5023540;28;20495;-81
2023/07/14 02:46:52;;;;;;;19.07;16.13;;;;;;;;;;5025998;28;20471;-81
2023/07/14 02:49:18;;;;;;;19.80;15.67;;;;;;;;;;5019241;28;20996;-81
2023/07/14 02:51:44;;;;;;;21.60;16.07;;;;;;;;;;5025132;28;20450;-81
2023/07/14 02:54:12;;;;;;;23.40;16.07;;;;;;;;;;5025588;28;20445;-81
2023/07/14 02:56:39;;;;;;;19.47;15.90;;;;;;;;;;5027819;28;20848;-82
2023/07/14 02:59:05;;;;;;;18.67;14.03;;;;;;;;;;5030026;28;20469;-81
2023/07/14 03:01:33;;;;;;;22.00;17.67;;;;;;;;;;5026342;28;20460;-82
2023/07/14 03:04:00;;;;;;;19.27;15.00;;;;;;;;;;5032361;28;20459;-82
2023/07/14 03:06:27;;;;;;;18.07;15.60;;;;;;;;;;5027535;28;20451;-81
2023/07/14 03:08:53;;;;;;;17.33;14.93;;;;;;;;;;5032871;28;20440;-81
2023/07/14 03:11:21;;;;;;;21.27;16.17;;;;;;;;;;5030218;28;20439;-82
2023/07/14 03:13:48;;;;;;;18.90;15.73;;;;;;;;;;5017143;28;20445;-81
2023/07/14 03:16:14;;;;;;;23.43;16.37;;;;;;;;;;5024852;28;20472;-81
2023/07/14 03:18:42;;;;;;;19.43;15.57;;;;;;;;;;5032097;28;20488;-81
2023/07/14 03:21:09;;;;;;;17.77;15.80;;;;;;;;;;5031725;28;20462;-82
2023/07/14 03:23:35;;;;;;;20.17;14.17;;;;;;;;;;5036029;28;20445;-80
2023/07/14 03:26:03;;;;;;;19.67;15.37;;;;;;;;;;5036761;28;20447;-82
2023/07/14 03:28:31;;;;;;;17.70;15.67;;;;;;;;;;5034085;28;20457;-81
2023/07/14 03:30:57;;;;;;;23.33;16.83;;;;;;;;;;5033245;28;20468;-80
2023/07/14 03:33:24;;;;;;;17.50;15.70;;;;;;;;;;5035018;28;20427;-81
2023/07/14 03:35:51;;;;;;;18.00;15.73;;;;;;;;;;5038694;28;20468;-81
2023/07/14 03:38:17;;;;;;;17.00;15.20;;;;;;;;;;5053293;28;20475;-81
2023/07/14 03:40:44;;;;;;;18.83;15.33;;;;;;;;;;5050867;28;20538;-81
2023/07/14 03:43:10;;;;;;;17.00;14.80;;;;;;;;;;5056122;28;20453;-81
2023/07/14 03:45:38;;;;;;;17.80;15.07;;;;;;;;;;5050492;28;20473;-82
2023/07/14 03:48:05;;;;;;;19.27;14.33;;;;;;;;;;5053694;28;20558;-81
2023/07/14 03:50:31;;;;;;;16.50;14.80;;;;;;;;;;5054355;28;20471;-81
2023/07/14 03:52:58;;;;;;;16.83;14.90;;;;;;;;;;5051184;28;20927;-82
2023/07/14 03:55:24;;;;;;;17.70;14.40;;;;;;;;;;5063320;28;20482;-81
2023/07/14 03:57:50;;;;;;;18.50;15.90;;;;;;;;;;5056595;28;20464;-82
2023/07/14 04:00:18;;;;;;;18.10;15.73;;;;;;;;;;5052987;28;20475;-82
2023/07/14 04:02:46;;;;;;;16.50;14.60;;;;;;;;;;5056894;28;20418;-82
2023/07/14 04:05:13;;;;;;;17.57;14.30;;;;;;;;;;5055493;28;20968;-81
2023/07/14 04:07:41;;;;;;;15.93;13.37;;;;;;;;;;5050616;28;20443;-81
2023/07/14 04:10:08;;;;;;;17.73;15.03;;;;;;;;;;5055881;28;20472;-81
2023/07/14 04:12:35;;;;;;;17.37;13.30;;;;;;;;;;5050649;28;20430;-81
2023/07/14 04:15:01;;;;;;;18.20;14.80;;;;;;;;;;5055858;28;20452;-81
2023/07/14 04:17:30;;;;;;;17.83;15.90;;;;;;;;;;5051688;28;20784;-81
2023/07/14 04:19:58;;;;;;;17.40;14.80;;;;;;;;;;5049088;28;20435;-82
2023/07/14 04:22:25;;;;;;;18.27;16.23;;;;;;;;;;5049244;28;20499;-83
2023/07/14 04:24:51;;;;;;;21.07;17.43;;;;;;;;;;5045882;28;20459;-81
2023/07/14 04:27:17;;;;;;;21.33;17.60;;;;;;;;;;5050574;28;20807;-81
2023/07/14 04:29:44;;;;;;;23.40;16.93;;;;;;;;;;5048393;28;20423;-81
2023/07/14 04:32:10;;;;;;;22.53;16.93;;;;;;;;;;5045930;28;20899;-80
2023/07/14 04:34:37;;;;;;;23.37;17.90;;;;;;;;;;5054852;28;20455;-81
2023/07/14 04:37:06;;;;;;;18.67;15.40;;;;;;;;;;5045762;28;20477;-81
2023/07/14 04:39:33;;;;;;;20.63;17.57;;;;;;;;;;5044567;28;20540;-82
2023/07/14 04:42:01;;;;;;;22.27;18.80;;;;;;;;;;5047442;28;20834;-81
2023/07/14 04:44:27;;;;;;;22.63;17.40;;;;;;;;;;5055515;28;20959;-82
2023/07/14 04:46:54;;;;;;;22.47;18.87;;;;;;;;;;5047852;28;20458;-81
2023/07/14 04:49:20;;;;;;;24.77;18.40;;;;;;;;;;5054589;28;20502;-81
2023/07/14 04:51:47;;;;;;;29.67;20.27;;;;;;;;;;5054901;28;21010;-81
2023/07/14 04:54:14;;;;;;;26.50;18.40;;;;;;;;;;5036850;28;20456;-81
2023/07/14 04:56:43;;;;;;;24.30;18.80;;;;;;;;;;5045101;28;20478;-81
2023/07/14 04:59:10;;;;;;;30.70;22.77;;;;;;;;;;5053911;28;20450;-82
2023/07/14 05:01:36;;;;;;;27.33;20.83;;;;;;;;;;5050484;28;20476;-82
2023/07/14 05:04:03;;;;;;;23.10;19.73;;;;;;;;;;5041600;28;20435;-81
2023/07/14 05:06:31;;;;;;;31.23;21.80;;;;;;;;;;5052123;28;20820;-79
2023/07/14 05:08:57;;;;;;;28.40;21.77;;;;;;;;;;5047700;28;20472;-80
2023/07/14 05:11:26;;;;;;;32.30;23.87;;;;;;;;;;5046157;28;20476;-80
2023/07/14 05:13:52;;;;;;;30.33;21.53;;;;;;;;;;5055054;28;20459;-80
2023/07/14 05:16:19;;;;;;;29.40;22.97;;;;;;;;;;5052160;28;20460;-80
2023/07/14 05:18:45;;;;;;;34.67;25.47;;;;;;;;;;5052724;28;20824;-80
2023/07/14 05:21:12;;;;;;;35.13;23.87;;;;;;;;;;5045563;28;20504;-80
2023/07/14 05:23:39;;;;;;;32.03;23.33;;;;;;;;;;5049825;28;20464;-79
2023/07/14 05:26:06;;;;;;;30.10;23.03;;;;;;;;;;5048025;28;20507;-80
2023/07/14 05:28:33;;;;;;;32.90;25.63;;;;;;;;;;5049447;28;20475;-80
2023/07/14 05:31:00;;;;;;;28.50;23.30;;;;;;;;;;5050914;28;20990;-81
2023/07/14 05:33:26;;;;;;;32.50;25.23;;;;;;;;;;5035638;28;20937;-80
2023/07/14 05:35:53;;;;;;;32.83;24.93;;;;;;;;;;5043073;28;20477;-81
2023/07/14 05:38:19;;;;;;;31.30;22.83;;;;;;;;;;5051077;28;20478;-80
2023/07/14 05:40:51;;;;;;;30.13;24.90;;;;;;;;;;5047622;28;21028;-80
2023/07/14 05:43:17;;;;;;;31.57;23.87;;;;;;;;;;5052190;28;20821;-80
2023/07/14 05:45:47;;;;;;;30.93;25.50;;;;;;;;;;5052643;28;20475;-81
2023/07/14 05:48:16;;;;;;;34.90;25.60;;;;;;;;;;5043289;28;20480;-79
2023/07/14 05:50:42;;;;;;;32.80;24.67;;;;;;;;;;5049022;28;20468;-79
2023/07/14 05:53:09;;;;;;;33.23;25.30;;;;;;;;;;5044052;28;20441;-79
2023/07/14 05:55:38;;;;;;;28.57;24.00;;;;;;;;;;5046732;28;20472;-79
2023/07/14 05:58:06;;;;;;;31.07;23.90;;;;;;;;;;5049721;28;20837;-80
2023/07/14 06:00:38;;;;;;;28.40;23.03;;;;;;;;;;5050549;28;20483;-80
2023/07/14 06:03:07;;;;;;;32.77;24.90;;;;;;;;;;5052988;28;20538;-80
2023/07/14 06:05:34;;;;;;;30.40;24.17;;;;;;;;;;5036180;28;20480;-80
2023/07/14 06:08:00;;;;;;;33.60;25.20;;;;;;;;;;5034127;28;20472;-79
2023/07/14 06:10:26;;;;;;;28.83;22.10;;;;;;;;;;5023582;28;20548;-80
2023/07/14 06:12:53;;;;;;;29.33;23.23;;;;;;;;;;5018855;28;20445;-80
2023/07/14 06:15:20;;;;;;;27.73;24.27;;;;;;;;;;5024843;28;21015;-80
2023/07/14 06:17:47;;;;;;;28.13;22.73;;;;;;;;;;5029795;28;21018;-79
2023/07/14 06:20:15;;;;;;;29.67;22.93;;;;;;;;;;5024565;28;20477;-80
2023/07/14 06:22:41;;;;;;;30.40;23.80;;;;;;;;;;5021004;28;20468;-80
2023/07/14 06:25:08;;;;;;;27.97;22.83;;;;;;;;;;5037784;28;20852;-80
2023/07/14 06:27:34;;;;;;;33.37;24.50;;;;;;;;;;5051481;28;20503;-78
2023/07/14 06:30:00;;;;;;;28.90;21.87;;;;;;;;;;5050526;28;20459;-80
2023/07/14 06:32:27;;;;;;;29.63;21.30;;;;;;;;;;5051834;28;20444;-80
2023/07/14 06:34:56;;;;;;;27.30;24.40;;;;;;;;;;5044964;28;20455;-80
2023/07/14 06:37:25;;;;;;;30.93;22.50;;;;;;;;;;5053192;28;20554;-80
2023/07/14 06:39:51;;;;;;;31.20;22.40;;;;;;;;;;5041205;28;20511;-79
2023/07/14 06:42:17;;;;;;;29.03;22.10;;;;;;;;;;5044049;28;20456;-79
2023/07/14 06:44:44;;;;;;;37.57;23.20;;;;;;;;;;5029599;28;20460;-80
2023/07/14 06:47:10;;;;;;;32.53;21.53;;;;;;;;;;5030723;28;20484;-79
2023/07/14 06:49:37;;;;;;;25.93;21.63;;;;;;;;;;5030081;28;20817;-81
2023/07/14 06:52:04;;;;;;;26.97;20.07;;;;;;;;;;5032423;28;20473;-80
2023/07/14 06:54:39;;;;;;;29.20;22.37;;;;;;;;;;5026404;28;20461;-80
2023/07/14 06:57:08;;;;;;;26.77;21.73;;;;;;;;;;5023431;28;20552;-80
2023/07/14 06:59:34;;;;;;;24.47;18.97;;;;;;;;;;5033448;28;20453;-79
2023/07/14 07:02:01;;;;;;;22.50;17.40;;;;;;;;;;5032560;28;20464;-80
2023/07/14 07:04:28;;;;;;;24.30;20.80;;;;;;;;;;5026622;28;20827;-80
2023/07/14 07:06:54;;;;;;;24.60;21.20;;;;;;;;;;5018517;28;20488;-80
2023/07/14 07:09:20;;;;;;;23.60;20.27;;;;;;;;;;5022723;28;20995;-80
2023/07/14 07:11:51;;;;;;;25.30;19.33;;;;;;;;;;5022858;28;20859;-81
2023/07/14 07:14:17;;;;;;;26.17;20.00;;;;;;;;;;5030091;28;20449;-81
2023/07/14 07:16:44;;;;;;;29.43;18.93;;;;;;;;;;5031322;28;20476;-80
2023/07/14 07:19:10;;;;;;;25.60;19.23;;;;;;;;;;5025665;28;20483;-80
2023/07/14 07:21:37;;;;;;;24.80;18.40;;;;;;;;;;5028100;28;20854;-81
2023/07/14 07:24:04;;;;;;;23.03;17.63;;;;;;;;;;5031431;28;20978;-80
2023/07/14 07:26:30;;;;;;;19.83;16.40;;;;;;;;;;5026735;28;20473;-80
2023/07/14 07:28:58;;;;;;;20.03;17.10;;;;;;;;;;5021175;28;20485;-80
2023/07/14 07:31:24;;;;;;;19.30;17.13;;;;;;;;;;5029609;28;20500;-80
2023/07/14 07:33:51;;;;;;;22.03;17.83;;;;;;;;;;5023093;28;20469;-80
2023/07/14 07:36:17;;;;;;;20.83;18.20;;;;;;;;;;5029087;28;20485;-79
2023/07/14 07:38:45;;;;;;;25.10;18.20;;;;;;;;;;5025915;28;20472;-81
2023/07/14 07:41:12;;;;;;;23.03;15.73;;;;;;;;;;5030133;28;20491;-80
2023/07/14 07:43:38;;;;;;;22.10;18.20;;;;;;;;;;5031407;28;20457;-80
2023/07/14 07:46:06;;;;;;;19.27;15.50;;;;;;;;;;5039314;28;20476;-80
2023/07/14 07:48:33;;;;;;;20.90;16.43;;;;;;;;;;5051729;28;21031;-81
2023/07/14 07:50:59;;;;;;;19.30;16.10;;;;;;;;;;5027371;28;20525;-80
2023/07/14 07:53:26;;;;;;;23.40;17.23;;;;;;;;;;5041995;28;20463;-80
2023/07/14 07:55:53;;;;;;;19.47;17.00;;;;;;;;;;5036892;28;20476;-80
2023/07/14 07:58:19;;;;;;;21.33;15.93;;;;;;;;;;5029342;28;20503;-80
2023/07/14 08:00:46;;;;;;;22.27;17.37;;;;;;;;;;5026401;28;20484;-80
2023/07/14 08:03:13;;;;;;;21.37;15.40;;;;;;;;;;5032981;28;20452;-80
2023/07/14 08:05:40;;;;;;;16.43;14.00;;;;;;;;;;5028988;28;20476;-80
2023/07/14 08:08:06;;;;;;;21.10;15.10;;;;;;;;;;5034989;28;20465;-80
2023/07/14 08:10:32;;;;;;;16.73;13.30;;;;;;;;;;5035855;28;20473;-80
2023/07/14 08:12:59;;;;;;;14.10;12.03;;;;;;;;;;5032324;28;20859;-80
2023/07/14 08:15:25;;;;;;;20.53;13.90;;;;;;;;;;5038988;28;20467;-80
2023/07/14 08:17:55;;;;;;;13.80;10.90;;;;;;;;;;5051686;28;20989;-81
2023/07/14 08:20:23;;;;;;;16.03;11.17;;;;;;;;;;5051632;28;20494;-82
2023/07/14 08:22:49;;;;;;;14.13;9.77;;;;;;;;;;5048882;28;20448;-80
2023/07/14 08:25:16;;;;;;;16.50;10.97;;;;;;;;;;5056455;28;20470;-80
2023/07/14 08:27:42;;;;;;;13.77;9.40;;;;;;;;;;5053711;28;20479;-80
2023/07/14 08:30:09;;;;;;;12.23;9.80;;;;;;;;;;5056080;28;20542;-81
2023/07/14 08:32:35;;;;;;;15.37;9.30;;;;;;;;;;5052934;28;20455;-80
2023/07/14 08:35:02;;;;;;;13.27;9.73;;;;;;;;;;5055729;28;20473;-80
2023/07/14 08:37:30;;;;;;;13.17;10.60;;;;;;;;;;5054533;28;20530;-80
2023/07/14 08:39:56;;;;;;;12.83;9.50;;;;;;;;;;5055164;28;20478;-80
2023/07/14 08:42:30;;;;;;;11.50;8.77;;;;;;;;;;5042364;28;20453;-80
2023/07/14 08:45:03;;;;;;;10.17;8.77;;;;;;;;;;5049240;28;20475;-80
2023/07/14 08:47:32;;;;;;;8.60;7.43;;;;;;;;;;5052306;28;20522;-80
2023/07/14 08:50:03;;;;;;;10.03;7.93;;;;;;;;;;5055881;28;20475;-80
2023/07/14 08:52:33;;;;;;;8.60;7.27;;;;;;;;;;5039286;28;20455;-80
2023/07/14 08:55:03;;;;;;;9.23;7.20;;;;;;;;;;5048451;28;20935;-80
2023/07/14 08:57:30;;;;;;;8.40;7.27;;;;;;;;;;5048675;28;20476;-80
2023/07/14 08:59:58;;;;;;;8.17;6.70;;;;;;;;;;5052728;28;20472;-81
2023/07/14 09:02:38;;;;;;;7.37;6.70;;;;;;;;;;5055833;28;20447;-81
2023/07/14 09:05:08;;;;;;;10.60;6.40;;;;;;;;;;5048755;28;20464;-81
2023/07/14 09:07:36;;;;;;;7.57;6.10;;;;;;;;;;5055278;28;20489;-80
2023/07/14 09:10:02;;;;;;;8.33;5.73;;;;;;;;;;5052290;28;20491;-81
2023/07/14 09:12:31;;;;;;;8.43;6.40;;;;;;;;;;5052710;28;20470;-80
2023/07/14 09:15:00;;;;;;;5.93;5.43;;;;;;;;;;5055343;28;20848;-80
2023/07/14 09:17:32;;;;;;;12.27;6.07;;;;;;;;;;5048004;28;20470;-80
2023/07/14 09:20:09;;;;;;;6.97;6.27;;;;;;;;;;5046110;28;20996;-81
2023/07/14 09:22:39;;;;;;;6.87;6.13;;;;;;;;;;5053344;28;20972;-80
2023/07/14 09:25:10;;;;;;;5.87;5.27;;;;;;;;;;5050706;28;20466;-80
2023/07/14 09:27:37;;;;;;;7.83;5.53;;;;;;;;;;5046106;28;20484;-81
2023/07/14 09:30:15;;;;;;;6.20;4.50;;;;;;;;;;5053141;28;20463;-80
2023/07/14 09:32:43;;;;;;;7.33;6.30;;;;;;;;;;5042190;28;20949;-80
2023/07/14 09:35:17;;;;;;;5.67;5.17;;;;;;;;;;5053437;28;20479;-81
2023/07/14 09:37:48;;;;;;;6.83;6.00;;;;;;;;;;5048474;28;20541;-80
2023/07/14 09:40:19;;;;;;;7.43;6.57;;;;;;;;;;5045212;28;20878;-79
2023/07/14 09:42:47;;;;;;;7.93;5.70;;;;;;;;;;5029137;28;20507;-79
2023/07/14 09:45:15;;;;;;;7.67;5.13;;;;;;;;;;5031248;28;20581;-80
2023/07/14 09:47:42;;;;;;;7.67;6.00;;;;;;;;;;5034368;28;20998;-80
2023/07/14 09:50:11;;;;;;;6.47;5.73;;;;;;;;;;5021421;28;20473;-80
2023/07/14 09:52:48;;;;;;;7.40;5.37;;;;;;;;;;5035361;28;20507;-80
2023/07/14 09:55:16;;;;;;;6.70;4.97;;;;;;;;;;5034363;28;20495;-80
2023/07/14 09:57:43;;;;;;;7.50;5.63;;;;;;;;;;5027160;28;20853;-80
2023/07/14 10:00:17;;;;;;;10.07;6.27;;;;;;;;;;5030411;28;20474;-80
2023/07/14 10:02:43;;;;;;;5.83;5.30;;;;;;;;;;5028483;28;20453;-80
2023/07/14 10:05:34;;;;;;;6.57;5.57;;;;;;;;;;5034118;28;20465;-80
2023/07/14 10:08:00;;;;;;;6.23;5.63;;;;;;;;;;5029141;28;20511;-79
2023/07/14 10:10:30;;;;;;;8.13;5.70;;;;;;;;;;5032959;28;20532;-80
2023/07/14 10:12:58;;;;;;;7.87;5.67;;;;;;;;;;5029587;28;20469;-80
2023/07/14 10:15:30;;;;;;;6.67;5.53;;;;;;;;;;5030881;28;20475;-80
2023/07/14 10:17:57;;;;;;;8.43;5.33;;;;;;;;;;5046927;28;20464;-79
2023/07/14 10:20:24;;;;;;;7.13;5.10;;;;;;;;;;5029715;28;20474;-80
2023/07/14 10:22:50;;;;;;;7.13;6.00;;;;;;;;;;5032638;28;20451;-80
2023/07/14 10:25:17;;;;;;;7.77;6.07;;;;;;;;;;5022202;28;20476;-80
2023/07/14 10:27:52;;;;;;;11.07;5.67;;;;;;;;;;5023821;28;20488;-80
2023/07/14 10:30:36;;;;;;;4.93;4.43;;;;;;;;;;5035695;28;20476;-80
2023/07/14 10:33:02;;;;;;;4.87;4.10;;;;;;;;;;5051473;28;20501;-80
2023/07/14 10:35:30;;;;;;;10.73;5.57;;;;;;;;;;5049203;28;20467;-80
2023/07/14 10:37:58;;;;;;;5.10;4.70;;;;;;;;;;5051267;28;20475;-80
2023/07/14 10:40:26;;;;;;;5.33;4.37;;;;;;;;;;5049942;28;20982;-80
2023/07/14 10:42:56;;;;;;;5.57;5.00;;;;;;;;;;5050276;28;20921;-80
2023/07/14 10:45:23;;;;;;;5.93;5.33;;;;;;;;;;5041921;28;20472;-78
2023/07/14 10:47:51;;;;;;;6.03;5.43;;;;;;;;;;5053263;28;20484;-80
2023/07/14 10:50:18;;;;;;;4.90;4.40;;;;;;;;;;5047761;28;20480;-79
2023/07/14 10:52:47;;;;;;;6.13;5.07;;;;;;;;;;5053406;28;20464;-79
2023/07/14 10:55:17;;;;;;;7.67;5.20;;;;;;;;;;5054263;28;20478;-82
2023/07/14 10:57:47;;;;;;;5.33;4.83;;;;;;;;;;5052519;28;20452;-80
2023/07/14 11:00:32;;;;;;;7.47;4.50;;;;;;;;;;5047316;28;20503;-80
2023/07/14 11:03:03;;;;;;;6.40;4.53;;;;;;;;;;5051923;28;20942;-80
2023/07/14 11:05:29;;;;;;;5.90;4.90;;;;;;;;;;5047060;28;20482;-80
2023/07/14 11:07:57;;;;;;;5.50;4.93;;;;;;;;;;5042453;28;20494;-79
2023/07/14 11:10:29;;;;;;;9.63;4.40;;;;;;;;;;5037424;28;20477;-81
2023/07/14 11:12:58;;;;;;;9.10;5.07;;;;;;;;;;5046732;28;20460;-80
2023/07/14 11:15:31;;;;;;;7.10;4.80;;;;;;;;;;5049653;28;20989;-80
2023/07/14 11:18:00;;;;;;;6.03;5.30;;;;;;;;;;5050833;28;20498;-80
2023/07/14 11:20:29;;;;;;;5.10;4.60;;;;;;;;;;5051045;28;20468;-81
2023/07/14 11:23:08;;;;;;;7.20;4.93;;;;;;;;;;5048636;28;20468;-80
2023/07/14 11:25:39;;;;;;;4.93;4.43;;;;;;;;;;5052641;28;20470;-80
2023/07/14 11:28:12;;;;;;;12.27;4.90;;;;;;;;;;5041165;28;20537;-80
2023/07/14 11:30:41;;;;;;;5.90;4.57;;;;;;;;;;5047755;28;20503;-80
2023/07/14 11:33:12;;;;;;;5.23;4.07;;;;;;;;;;5052887;28;20458;-80
2023/07/14 11:35:41;;;;;;;5.50;4.50;;;;;;;;;;5052606;28;20476;-80
2023/07/14 11:38:15;;;;;;;7.43;4.73;;;;;;;;;;5052396;28;20853;-79
2023/07/14 11:40:43;;;;;;;5.00;4.53;;;;;;;;;;5034167;28;20476;-80
2023/07/14 11:43:11;;;;;;;5.00;3.97;;;;;;;;;;5032460;28;20472;-80
2023/07/14 11:45:38;;;;;;;6.47;4.40;;;;;;;;;;5029417;28;20473;-80
2023/07/14 11:48:06;;;;;;;5.50;3.70;;;;;;;;;;5027390;28;20488;-80
2023/07/14 11:50:34;;;;;;;4.67;4.07;;;;;;;;;;5034126;28;20521;-80
2023/07/14 11:53:02;;;;;;;5.77;3.90;;;;;;;;;;5056583;28;20826;-80
2023/07/14 11:55:30;;;;;;;7.60;4.40;;;;;;;;;;5055950;28;20527;-81
2023/07/14 11:58:05;;;;;;;7.10;4.07;;;;;;;;;;5046367;28;20880;-81
2023/07/14 12:00:38;;;;;;;4.63;4.20;;;;;;;;;;5050825;28;21062;-80
2023/07/14 12:03:09;;;;;;;5.10;3.90;;;;;;;;;;5044502;28;20456;-80
2023/07/14 12:05:41;;;;;;;5.53;4.37;;;;;;;;;;5055658;28;20468;-81
2023/07/14 12:08:31;;;;;;;7.63;4.50;;;;;;;;;;5053772;28;20566;-80
2023/07/14 12:11:02;;;;;;;4.17;3.77;;;;;;;;;;5055030;28;20474;-80
2023/07/14 12:13:33;;;;;;;4.20;3.80;;;;;;;;;;5052614;28;20886;-81
2023/07/14 12:16:20;;;;;;;8.73;4.50;;;;;;;;;;5047201;28;20480;-81
2023/07/14 12:18:59;;;;;;;5.17;3.80;;;;;;;;;;5048774;28;20899;-80
2023/07/14 12:21:34;;;;;;;6.93;3.83;;;;;;;;;;5049330;28;20475;-81
2023/07/14 12:24:02;;;;;;;8.53;4.40;;;;;;;;;;5054488;28;20447;-80
2023/07/14 12:26:31;;;;;;;7.33;4.20;;;;;;;;;;5054943;28;20560;-81
2023/07/14 12:29:00;;;;;;;6.57;3.77;;;;;;;;;;5056501;28;20525;-81
2023/07/14 12:31:34;;;;;;;6.73;3.97;;;;;;;;;;5048150;28;20476;-80
2023/07/14 12:34:03;;;;;;;4.57;4.17;;;;;;;;;;5053408;28;20474;-81
2023/07/14 12:36:31;;;;;;;6.07;4.30;;;;;;;;;;5049592;28;20476;-80
2023/07/14 12:38:58;;;;;;;4.33;3.70;;;;;;;;;;5048348;28;20483;-80
2023/07/14 12:41:29;;;;;;;6.20;3.50;;;;;;;;;;5049532;28;20476;-80
2023/07/14 12:43:57;;;;;;;4.10;3.50;;;;;;;;;;5052758;28;20475;-80
2023/07/14 12:46:26;;;;;;;5.03;3.77;;;;;;;;;;5047249;28;21032;-80
2023/07/14 12:48:58;;;;;;;5.70;3.00;;;;;;;;;;5054970;28;20860;-80
2023/07/14 12:51:25;;;;;;;5.83;3.37;;;;;;;;;;5051180;28;20476;-81
2023/07/14 12:53:57;;;;;;;4.80;3.50;;;;;;;;;;5052879;28;20887;-81
2023/07/14 12:56:24;;;;;;;5.40;3.00;;;;;;;;;;5055359;28;20472;-81
2023/07/14 12:58:53;;;;;;;4.17;3.30;;;;;;;;;;5046582;28;20479;-81
2023/07/14 13:01:20;;;;;;;3.40;3.00;;;;;;;;;;5055933;28;20475;-81
2023/07/14 13:03:46;;;;;;;4.00;2.83;;;;;;;;;;5053769;28;20444;-81
2023/07/14 13:06:15;;;;;;;10.10;3.67;;;;;;;;;;5047819;28;20480;-81
2023/07/14 13:08:45;;;;;;;6.03;3.40;;;;;;;;;;5044833;28;20511;-81
2023/07/14 13:11:14;;;;;;;3.20;3.00;;;;;;;;;;5052262;28;21106;-81
2023/07/14 13:13:44;;;;;;;5.37;3.10;;;;;;;;;;5056593;28;20527;-81
2023/07/14 13:16:11;;;;;;;7.23;3.50;;;;;;;;;;5051277;28;20566;-80
2023/07/14 13:18:38;;;;;;;5.30;3.77;;;;;;;;;;5048972;28;20820;-81
2023/07/14 13:21:05;;;;;;;7.20;5.50;;;;;;;;;;5053855;28;20479;-81
2023/07/14 13:23:33;;;;;;;6.47;4.77;;;;;;;;;;5049379;28;20464;-81
2023/07/14 13:26:10;;;;;;;5.40;3.80;;;;;;;;;;5048080;28;20476;-80
2023/07/14 13:28:38;;;;;;;4.67;4.07;;;;;;;;;;5047962;28;20492;-80
2023/07/14 13:31:06;;;;;;;4.43;4.03;;;;;;;;;;5055516;28;20480;-81
2023/07/14 13:33:32;;;;;;;6.00;4.97;;;;;;;;;;5052620;28;20459;-81
2023/07/14 13:36:00;;;;;;;7.03;5.47;;;;;;;;;;5050622;28;20467;-81
2023/07/14 13:38:27;;;;;;;15.33;13.73;;;;;;;;;;5055269;28;20483;-79
2023/07/14 13:40:54;;;;;;;13.07;11.83;;;;;;;;;;5053061;28;20471;-79
2023/07/14 13:43:22;;;;;;;194.77;177.37;;;;;;;;;;5053269;28;21120;-81
2023/07/14 13:45:58;;;;;;;10.83;9.60;;;;;;;;;;5055573;28;20475;-81
2023/07/14 13:48:25;;;;;;;16.27;13.73;;;;;;;;;;5055807;28;20514;-81
2023/07/14 13:50:52;;;;;;;6.67;5.37;;;;;;;;;;5055854;28;21000;-81
2023/07/14 13:53:18;;;;;;;5.87;4.67;;;;;;;;;;5056604;28;20925;-81
2023/07/14 13:55:44;;;;;;;6.60;4.67;;;;;;;;;;5051783;28;20985;-82
2023/07/14 13:58:11;;;;;;;6.87;4.40;;;;;;;;;;5055401;28;20498;-81
2023/07/14 14:00:41;;;;;;;4.30;3.90;;;;;;;;;;5055320;28;20476;-80
2023/07/14 14:03:09;;;;;;;5.97;3.43;;;;;;;;;;5052564;28;20567;-80
2023/07/14 14:05:37;;;;;;;4.77;3.60;;;;;;;;;;5055150;28;20483;-82
2023/07/14 14:08:04;;;;;;;4.20;3.57;;;;;;;;;;5055972;28;20484;-80
2023/07/14 14:10:31;;;;;;;5.17;3.60;;;;;;;;;;5053615;28;20463;-80
2023/07/14 14:12:58;;;;;;;5.73;3.70;;;;;;;;;;5052447;28;20456;-80
2023/07/14 14:15:26;;;;;;;3.43;2.83;;;;;;;;;;5047163;28;20471;-80
2023/07/14 14:17:56;;;;;;;4.83;3.73;;;;;;;;;;5053854;28;20467;-79
2023/07/14 14:20:24;;;;;;;5.57;3.57;;;;;;;;;;5050017;28;20496;-81
2023/07/14 14:22:52;;;;;;;5.80;4.13;;;;;;;;;;5056053;28;20460;-79
2023/07/14 14:25:20;;;;;;;5.23;3.40;;;;;;;;;;5052879;28;20521;-81
2023/07/14 14:27:47;;;;;;;5.90;3.80;;;;;;;;;;5048205;28;20499;-80
2023/07/14 14:30:14;;;;;;;6.33;3.97;;;;;;;;;;5051185;28;20471;-82
2023/07/14 14:32:41;;;;;;;3.87;3.20;;;;;;;;;;5056313;28;20468;-81
2023/07/14 14:35:30;;;;;;;3.37;3.07;;;;;;;;;;5046258;28;20565;-82